RYR91DJ EGPH-LPPR
Flight info
| Callsign | RYR91DJ |
|---|---|
| Flight time | N/A |
| Altitude | 34000 |
| Route | GOSAM P600 TRN/N0446F340 DCT BLACA DCT NELBO DCT NIMAT DCT TUVEN/M079F350 DCT TULTA/N0452F350 DCT KORUL DCT ELTEP/N0394F230 T328 ASPOR |
| Aircraft | B738/M-SDE2E3FGHIRWXY/LB1 |
Departure
| Time | 2026-05-06 17:00 |
|---|---|
| Airport | Edinburgh Airport (EGPH) |
Arrival
| Time | N/A |
|---|---|
| Airport | Francisco de Sá Carneiro Airport (LPPR) |
| Time | Latitude | Longitude | Altitude | Speed | Heading |
|---|---|---|---|---|---|
| 2026-05-06 16:35 | 55.94998 | -3.36242 | 106 ft | 0 kts | 116° |
| 2026-05-06 16:49 | 55.94999 | -3.36245 | 106 ft | 1 kts | 116° |
| 2026-05-06 16:50 | 55.95003 | -3.36261 | 106 ft | 3 kts | 115° |
| 2026-05-06 16:50 | 55.95012 | -3.36293 | 105 ft | 3 kts | 115° |
| 2026-05-06 16:50 | 55.95020 | -3.36326 | 105 ft | 3 kts | 108° |
| 2026-05-06 16:50 | 55.95024 | -3.36358 | 104 ft | 3 kts | 75° |
| 2026-05-06 16:51 | 55.95025 | -3.36372 | 106 ft | 2 kts | 358° |
| 2026-05-06 16:51 | 55.95021 | -3.36371 | 106 ft | 1 kts | 341° |
| 2026-05-06 16:51 | 55.95020 | -3.36370 | 106 ft | 0 kts | 341° |
| 2026-05-06 16:55 | 55.95049 | -3.36392 | 106 ft | 8 kts | 333° |
| 2026-05-06 16:55 | 55.95070 | -3.36468 | 106 ft | 7 kts | 258° |
| 2026-05-06 16:55 | 55.95040 | -3.36563 | 106 ft | 12 kts | 237° |
| 2026-05-06 16:55 | 55.94981 | -3.36733 | 106 ft | 17 kts | 238° |
| 2026-05-06 16:56 | 55.94921 | -3.36915 | 106 ft | 17 kts | 239° |
| 2026-05-06 16:56 | 55.94862 | -3.37088 | 106 ft | 16 kts | 238° |
| 2026-05-06 16:56 | 55.94805 | -3.37255 | 105 ft | 15 kts | 239° |
| 2026-05-06 16:56 | 55.94751 | -3.37416 | 106 ft | 15 kts | 239° |
| 2026-05-06 16:57 | 55.94699 | -3.37570 | 106 ft | 14 kts | 239° |
| 2026-05-06 16:57 | 55.94635 | -3.37756 | 106 ft | 22 kts | 238° |
| 2026-05-06 16:57 | 55.94555 | -3.37990 | 105 ft | 22 kts | 238° |
| 2026-05-06 16:57 | 55.94477 | -3.38220 | 106 ft | 21 kts | 239° |
| 2026-05-06 16:58 | 55.94402 | -3.38445 | 106 ft | 21 kts | 239° |
| 2026-05-06 16:58 | 55.94328 | -3.38660 | 106 ft | 20 kts | 238° |
| 2026-05-06 16:58 | 55.94284 | -3.38849 | 106 ft | 12 kts | 292° |
| 2026-05-06 16:58 | 55.94350 | -3.38932 | 105 ft | 12 kts | 329° |
| 2026-05-06 16:59 | 55.94422 | -3.38949 | 106 ft | 11 kts | 42° |
| 2026-05-06 16:59 | 55.94480 | -3.38785 | 107 ft | 35 kts | 59° |
| 2026-05-06 16:59 | 55.94735 | -3.38029 | 108 ft | 105 kts | 58° |
| 2026-05-06 16:59 | 55.95216 | -3.36622 | 186 ft | 153 kts | 58° |
| 2026-05-06 17:00 | 55.95806 | -3.35026 | 919 ft | 153 kts | 58° |
| 2026-05-06 17:00 | 55.96491 | -3.33424 | 1497 ft | 170 kts | 47° |
| 2026-05-06 17:00 | 55.97378 | -3.31974 | 2219 ft | 178 kts | 44° |
| 2026-05-06 17:00 | 55.98387 | -3.30372 | 2585 ft | 209 kts | 43° |
| 2026-05-06 17:01 | 55.99575 | -3.28640 | 2914 ft | 229 kts | 30° |
| 2026-05-06 17:01 | 56.01137 | -3.28052 | 3502 ft | 236 kts | 352° |
| 2026-05-06 17:01 | 56.02605 | -3.29262 | 4218 ft | 236 kts | 313° |
| 2026-05-06 17:01 | 56.03348 | -3.31789 | 5072 ft | 230 kts | 274° |
| 2026-05-06 17:02 | 56.03156 | -3.34565 | 5950 ft | 226 kts | 254° |
| 2026-05-06 17:02 | 56.02735 | -3.37377 | 6284 ft | 252 kts | 255° |
| 2026-05-06 17:02 | 56.02270 | -3.40480 | 6250 ft | 258 kts | 255° |
| 2026-05-06 17:02 | 56.01813 | -3.43580 | 6601 ft | 264 kts | 254° |
| 2026-05-06 17:03 | 56.01345 | -3.46780 | 7411 ft | 267 kts | 255° |
| 2026-05-06 17:03 | 56.00885 | -3.49995 | 8283 ft | 269 kts | 255° |
| 2026-05-06 17:03 | 56.00421 | -3.53254 | 9119 ft | 271 kts | 255° |
| 2026-05-06 17:03 | 55.99952 | -3.56540 | 9949 ft | 274 kts | 255° |
| 2026-05-06 17:04 | 55.99474 | -3.59895 | 10497 ft | 287 kts | 255° |
| 2026-05-06 17:04 | 55.98953 | -3.63526 | 10676 ft | 312 kts | 255° |
| 2026-05-06 17:04 | 55.98397 | -3.67405 | 10904 ft | 333 kts | 255° |
| 2026-05-06 17:04 | 55.97814 | -3.71461 | 11474 ft | 340 kts | 255° |
| 2026-05-06 17:05 | 55.97222 | -3.75575 | 12241 ft | 342 kts | 255° |
| 2026-05-06 17:05 | 55.96628 | -3.79695 | 13039 ft | 344 kts | 255° |
| 2026-05-06 17:05 | 55.96029 | -3.83843 | 13803 ft | 347 kts | 255° |
| 2026-05-06 17:05 | 55.95423 | -3.88023 | 14462 ft | 349 kts | 255° |
| 2026-05-06 17:06 | 55.94810 | -3.92236 | 15133 ft | 352 kts | 255° |
| 2026-05-06 17:06 | 55.94196 | -3.96418 | 15802 ft | 354 kts | 254° |
| 2026-05-06 17:06 | 55.93232 | -4.00485 | 16449 ft | 359 kts | 239° |
| 2026-05-06 17:06 | 55.91721 | -4.04048 | 17113 ft | 363 kts | 229° |
| 2026-05-06 17:07 | 55.89811 | -4.07036 | 17730 ft | 370 kts | 218° |
| 2026-05-06 17:07 | 55.87672 | -4.09625 | 18339 ft | 374 kts | 216° |
| 2026-05-06 17:07 | 55.85487 | -4.12192 | 18855 ft | 377 kts | 216° |
| 2026-05-06 17:07 | 55.83296 | -4.14791 | 19359 ft | 381 kts | 217° |
| 2026-05-06 17:08 | 55.81096 | -4.17437 | 19882 ft | 384 kts | 217° |
| 2026-05-06 17:08 | 55.78873 | -4.20124 | 20392 ft | 387 kts | 218° |
| 2026-05-06 17:08 | 55.76649 | -4.22852 | 20892 ft | 390 kts | 218° |
| 2026-05-06 17:08 | 55.74410 | -4.25615 | 21386 ft | 393 kts | 218° |
| 2026-05-06 17:09 | 55.72153 | -4.28395 | 21861 ft | 397 kts | 218° |
| 2026-05-06 17:09 | 55.69876 | -4.31199 | 22318 ft | 400 kts | 218° |
| 2026-05-06 17:09 | 55.67578 | -4.34040 | 22730 ft | 405 kts | 218° |
| 2026-05-06 17:09 | 55.65256 | -4.36911 | 23177 ft | 408 kts | 219° |
| 2026-05-06 17:10 | 55.62919 | -4.39796 | 23637 ft | 411 kts | 219° |
| 2026-05-06 17:10 | 55.60569 | -4.42694 | 23997 ft | 414 kts | 219° |
| 2026-05-06 17:10 | 55.58189 | -4.45623 | 24354 ft | 417 kts | 219° |
| 2026-05-06 17:10 | 55.55802 | -4.48555 | 24698 ft | 420 kts | 219° |
| 2026-05-06 17:11 | 55.53421 | -4.51475 | 25041 ft | 423 kts | 219° |
| 2026-05-06 17:11 | 55.50962 | -4.54487 | 25369 ft | 426 kts | 219° |
| 2026-05-06 17:11 | 55.48552 | -4.57434 | 25697 ft | 429 kts | 219° |
| 2026-05-06 17:11 | 55.46085 | -4.60445 | 26030 ft | 432 kts | 219° |
| 2026-05-06 17:12 | 55.43605 | -4.63468 | 26335 ft | 435 kts | 219° |
| 2026-05-06 17:12 | 55.41102 | -4.66515 | 26618 ft | 439 kts | 219° |
| 2026-05-06 17:12 | 55.38582 | -4.69577 | 26886 ft | 442 kts | 219° |
| 2026-05-06 17:12 | 55.36041 | -4.72661 | 27205 ft | 444 kts | 219° |
| 2026-05-06 17:13 | 55.33485 | -4.75757 | 27511 ft | 447 kts | 219° |
| 2026-05-06 17:13 | 55.30906 | -4.78812 | 27800 ft | 451 kts | 216° |
| 2026-05-06 17:13 | 55.28133 | -4.81485 | 28073 ft | 456 kts | 211° |
| 2026-05-06 17:13 | 55.25281 | -4.83963 | 28340 ft | 459 kts | 210° |
| 2026-05-06 17:14 | 55.22394 | -4.86404 | 28622 ft | 462 kts | 210° |
| 2026-05-06 17:14 | 55.19494 | -4.88861 | 28903 ft | 464 kts | 210° |
| 2026-05-06 17:14 | 55.16582 | -4.91355 | 29175 ft | 466 kts | 210° |
| 2026-05-06 17:14 | 55.13704 | -4.93846 | 29545 ft | 466 kts | 210° |
| 2026-05-06 17:15 | 55.10804 | -4.96369 | 29878 ft | 466 kts | 210° |
| 2026-05-06 17:15 | 55.07891 | -4.98911 | 30143 ft | 468 kts | 210° |
| 2026-05-06 17:15 | 55.04978 | -5.01452 | 30432 ft | 468 kts | 210° |
| 2026-05-06 17:15 | 55.02060 | -5.03991 | 30752 ft | 468 kts | 210° |
| 2026-05-06 17:16 | 54.99146 | -5.06522 | 31012 ft | 469 kts | 210° |
| 2026-05-06 17:16 | 54.96219 | -5.09059 | 31249 ft | 470 kts | 211° |
| 2026-05-06 17:16 | 54.93289 | -5.11594 | 31516 ft | 470 kts | 211° |
| 2026-05-06 17:16 | 54.90361 | -5.14119 | 31812 ft | 470 kts | 210° |
| 2026-05-06 17:17 | 54.87326 | -5.16324 | 32048 ft | 475 kts | 201° |
| 2026-05-06 17:17 | 54.84100 | -5.17718 | 32275 ft | 479 kts | 194° |
| 2026-05-06 17:17 | 54.80826 | -5.18859 | 32541 ft | 480 kts | 194° |
| 2026-05-06 17:17 | 54.77537 | -5.19977 | 32771 ft | 481 kts | 194° |
| 2026-05-06 17:18 | 54.74254 | -5.21113 | 33006 ft | 482 kts | 194° |
| 2026-05-06 17:18 | 54.70970 | -5.22281 | 33279 ft | 481 kts | 195° |
| 2026-05-06 17:18 | 54.67730 | -5.23456 | 33553 ft | 481 kts | 195° |
| 2026-05-06 17:18 | 54.64453 | -5.24658 | 33805 ft | 481 kts | 195° |
| 2026-05-06 17:19 | 54.61168 | -5.25864 | 33999 ft | 482 kts | 194° |
| 2026-05-06 17:19 | 54.54562 | -5.28280 | 34010 ft | 486 kts | 194° |
| 2026-05-06 17:20 | 54.48034 | -5.31052 | 33997 ft | 478 kts | 204° |
| 2026-05-06 17:20 | 54.42080 | -5.35962 | 33999 ft | 474 kts | 211° |
| 2026-05-06 17:21 | 54.36190 | -5.41074 | 33995 ft | 474 kts | 210° |